Impacts METAR Board INFO
IDs:

KCVG - Cincinnati Intl, KY, US

Updated at: 0729 UTC 11 Dec 2017
Potential Impact None Slight Moderate High
Time10/19Z 10/20Z 10/21Z 10/22Z 10/23Z 11/00Z 11/01Z 11/02Z 11/03Z 11/04Z 11/05Z 11/06Z 11/07Z
VIS10 10 10 10 10 10 10 10 10 10 10
CIG90 85 120 -- -- -- -- 150 -- -- --
CoverOVCOVCBKNFEWFEWCLRFEWBKNSCTFEWCLR
FltCatVFRVFRVFRVFRVFRVFRVFRVFRVFRVFRVFR
WX----------------------
WDir210190200210220210220220230250270
WSpd11 14 11 10 6 6 5 6 6 5 7
WGst19 18 20 -- -- -- -- -- -- -- --
Raw hourly METARs
KCVG 101852Z 21011G19KT 10SM BKN090 OVC110 01/M07 A3000 RMK AO2 SLP166 T00061067
KCVG 101952Z 19014G18KT 10SM BKN085 OVC100 01/M06 A2997 RMK AO2 SLP157 T00111061
KCVG 102052Z 20011G20KT 10SM SCT080 BKN120 02/M07 A2996 RMK AO2 SLP151 T00171067 56029
KCVG 102152Z 21010KT 10SM FEW100 02/M07 A2997 RMK AO2 SLP157 T00171072
KCVG 102252Z 22006KT 10SM FEW100 01/M07 A3000 RMK AO2 SLP166 T00061067
KCVG 102352Z 21006KT 10SM CLR 01/M07 A3001 RMK AO2 SLP171 T00061067 10017 20000 52019
KCVG 110052Z 22005KT 10SM FEW150 01/M07 A3002 RMK AO2 SLP173 T00061067
KCVG 110152Z 22006KT 10SM BKN150 00/M07 A3002 RMK AO2 SLP173 T00001067
KCVG 110252Z 23006KT 10SM SCT150 01/M06 A3003 RMK AO2 SLP176 T00061061 53005
KCVG 110352Z 25005KT 10SM FEW040 01/M06 A3004 RMK AO2 SLP180 T00061056
KCVG 110452Z 27007KT 10SM CLR M01/M05 A3006 RMK AO2 SLP185 T10061050 400171067